sensor_id;sensor_type;location;lat;lon;timestamp;temperature;humidity
15630;DHT22;7914;50.842;0.166;2023-01-24T00:01:14;3.60;99.90
15630;DHT22;7914;50.842;0.166;2023-01-24T00:03:40;3.70;99.90
15630;DHT22;7914;50.842;0.166;2023-01-24T00:06:06;3.70;99.90
15630;DHT22;7914;50.842;0.166;2023-01-24T00:08:32;3.70;99.90
15630;DHT22;7914;50.842;0.166;2023-01-24T00:11:09;3.70;99.90
15630;DHT22;7914;50.842;0.166;2023-01-24T00:13:36;3.70;99.90
15630;DHT22;7914;50.842;0.166;2023-01-24T00:16:06;3.70;99.90
15630;DHT22;7914;50.842;0.166;2023-01-24T00:18:33;3.80;99.90
15630;DHT22;7914;50.842;0.166;2023-01-24T00:21:07;3.80;99.90
15630;DHT22;7914;50.842;0.166;2023-01-24T00:23:41;3.80;99.90
15630;DHT22;7914;50.842;0.166;2023-01-24T00:26:08;3.80;99.90
15630;DHT22;7914;50.842;0.166;2023-01-24T00:28:34;3.80;99.90
15630;DHT22;7914;50.842;0.166;2023-01-24T00:31:00;3.80;99.90
15630;DHT22;7914;50.842;0.166;2023-01-24T00:33:26;3.80;99.90
15630;DHT22;7914;50.842;0.166;2023-01-24T00:35:52;3.80;99.90
15630;DHT22;7914;50.842;0.166;2023-01-24T00:38:20;3.90;99.90
15630;DHT22;7914;50.842;0.166;2023-01-24T00:40:46;3.90;99.90
15630;DHT22;7914;50.842;0.166;2023-01-24T00:43:12;4.00;99.90
15630;DHT22;7914;50.842;0.166;2023-01-24T00:45:38;3.90;99.90
15630;DHT22;7914;50.842;0.166;2023-01-24T00:48:05;3.90;99.90
15630;DHT22;7914;50.842;0.166;2023-01-24T00:50:32;4.00;99.90
15630;DHT22;7914;50.842;0.166;2023-01-24T00:52:58;4.00;99.90
15630;DHT22;7914;50.842;0.166;2023-01-24T00:55:24;4.10;99.90
15630;DHT22;7914;50.842;0.166;2023-01-24T00:57:50;4.00;99.90
15630;DHT22;7914;50.842;0.166;2023-01-24T01:00:16;4.00;96.40
15630;DHT22;7914;50.842;0.166;2023-01-24T01:02:42;4.00;99.90
15630;DHT22;7914;50.842;0.166;2023-01-24T01:05:07;4.00;99.90
15630;DHT22;7914;50.842;0.166;2023-01-24T01:07:34;4.00;99.90
15630;DHT22;7914;50.842;0.166;2023-01-24T01:10:00;4.00;99.90
15630;DHT22;7914;50.842;0.166;2023-01-24T01:12:25;4.00;99.90
15630;DHT22;7914;50.842;0.166;2023-01-24T01:14:51;4.00;99.90
15630;DHT22;7914;50.842;0.166;2023-01-24T01:17:17;3.90;99.90
15630;DHT22;7914;50.842;0.166;2023-01-24T01:19:43;3.90;99.90
15630;DHT22;7914;50.842;0.166;2023-01-24T01:22:08;4.00;99.90
15630;DHT22;7914;50.842;0.166;2023-01-24T01:24:34;4.00;99.90
15630;DHT22;7914;50.842;0.166;2023-01-24T01:27:00;3.90;99.90
15630;DHT22;7914;50.842;0.166;2023-01-24T01:29:26;3.90;99.90
15630;DHT22;7914;50.842;0.166;2023-01-24T01:31:52;3.90;99.90
15630;DHT22;7914;50.842;0.166;2023-01-24T01:34:17;4.00;99.90
15630;DHT22;7914;50.842;0.166;2023-01-24T01:36:43;3.90;99.90
15630;DHT22;7914;50.842;0.166;2023-01-24T01:39:09;3.90;99.90
15630;DHT22;7914;50.842;0.166;2023-01-24T01:41:35;4.00;99.90
15630;DHT22;7914;50.842;0.166;2023-01-24T01:50:16;4.10;99.90
15630;DHT22;7914;50.842;0.166;2023-01-24T01:52:46;4.10;99.90
15630;DHT22;7914;50.842;0.166;2023-01-24T01:55:19;4.00;99.90
15630;DHT22;7914;50.842;0.166;2023-01-24T01:57:47;4.00;99.90
15630;DHT22;7914;50.842;0.166;2023-01-24T02:00:17;4.00;99.90
15630;DHT22;7914;50.842;0.166;2023-01-24T02:02:48;4.00;99.90
15630;DHT22;7914;50.842;0.166;2023-01-24T02:05:18;4.10;99.90
15630;DHT22;7914;50.842;0.166;2023-01-24T02:07:52;4.10;99.90
15630;DHT22;7914;50.842;0.166;2023-01-24T02:10:21;4.10;99.90
15630;DHT22;7914;50.842;0.166;2023-01-24T02:12:49;4.10;99.90
15630;DHT22;7914;50.842;0.166;2023-01-24T02:15:20;4.10;99.90
15630;DHT22;7914;50.842;0.166;2023-01-24T02:18:06;4.10;99.90
15630;DHT22;7914;50.842;0.166;2023-01-24T02:20:39;4.20;99.90
15630;DHT22;7914;50.842;0.166;2023-01-24T02:28:36;4.20;99.90
15630;DHT22;7914;50.842;0.166;2023-01-24T02:31:02;4.20;99.90
15630;DHT22;7914;50.842;0.166;2023-01-24T02:33:29;4.30;91.60
15630;DHT22;7914;50.842;0.166;2023-01-24T02:36:24;4.30;99.90
15630;DHT22;7914;50.842;0.166;2023-01-24T02:39:02;4.30;99.90
15630;DHT22;7914;50.842;0.166;2023-01-24T02:41:43;4.30;97.40
15630;DHT22;7914;50.842;0.166;2023-01-24T02:44:29;4.20;97.20
15630;DHT22;7914;50.842;0.166;2023-01-24T02:46:55;4.20;99.90
15630;DHT22;7914;50.842;0.166;2023-01-24T02:49:21;4.20;99.90
15630;DHT22;7914;50.842;0.166;2023-01-24T02:51:47;4.20;99.90
15630;DHT22;7914;50.842;0.166;2023-01-24T02:54:31;4.20;99.90
15630;DHT22;7914;50.842;0.166;2023-01-24T02:56:56;5.40;99.90
15630;DHT22;7914;50.842;0.166;2023-01-24T02:59:40;4.10;99.90
15630;DHT22;7914;50.842;0.166;2023-01-24T03:02:06;4.20;99.90
15630;DHT22;7914;50.842;0.166;2023-01-24T03:04:32;4.20;99.90
15630;DHT22;7914;50.842;0.166;2023-01-24T03:06:57;4.20;99.90
15630;DHT22;7914;50.842;0.166;2023-01-24T03:09:23;4.20;99.90
15630;DHT22;7914;50.842;0.166;2023-01-24T03:12:00;4.20;99.90
15630;DHT22;7914;50.842;0.166;2023-01-24T03:14:47;4.20;99.90
15630;DHT22;7914;50.842;0.166;2023-01-24T03:17:32;4.20;99.90
15630;DHT22;7914;50.842;0.166;2023-01-24T03:20:16;4.20;99.90
15630;DHT22;7914;50.842;0.166;2023-01-24T03:23:01;4.20;99.90
15630;DHT22;7914;50.842;0.166;2023-01-24T03:25:45;4.20;99.90
15630;DHT22;7914;50.842;0.166;2023-01-24T03:28:29;4.20;99.90
15630;DHT22;7914;50.842;0.166;2023-01-24T03:31:13;4.20;99.90
15630;DHT22;7914;50.842;0.166;2023-01-24T03:33:58;4.20;99.90
15630;DHT22;7914;50.842;0.166;2023-01-24T03:36:42;4.20;99.90
15630;DHT22;7914;50.842;0.166;2023-01-24T03:39:11;4.20;99.90
15630;DHT22;7914;50.842;0.166;2023-01-24T03:41:56;4.20;99.90
15630;DHT22;7914;50.842;0.166;2023-01-24T03:44:22;4.20;99.90
15630;DHT22;7914;50.842;0.166;2023-01-24T03:46:49;4.20;99.90
15630;DHT22;7914;50.842;0.166;2023-01-24T03:49:14;4.30;99.90
15630;DHT22;7914;50.842;0.166;2023-01-24T03:51:42;4.20;99.90
15630;DHT22;7914;50.842;0.166;2023-01-24T03:54:26;4.30;99.90
15630;DHT22;7914;50.842;0.166;2023-01-24T03:56:52;4.30;99.90
15630;DHT22;7914;50.842;0.166;2023-01-24T03:59:17;4.30;99.90
15630;DHT22;7914;50.842;0.166;2023-01-24T04:01:43;4.20;99.90
15630;DHT22;7914;50.842;0.166;2023-01-24T04:04:09;4.30;99.90
15630;DHT22;7914;50.842;0.166;2023-01-24T04:06:36;4.30;99.90
15630;DHT22;7914;50.842;0.166;2023-01-24T04:09:02;4.20;99.90
15630;DHT22;7914;50.842;0.166;2023-01-24T04:11:28;4.30;99.90
15630;DHT22;7914;50.842;0.166;2023-01-24T04:13:54;4.20;99.90
15630;DHT22;7914;50.842;0.166;2023-01-24T04:16:20;4.30;99.90
15630;DHT22;7914;50.842;0.166;2023-01-24T04:18:45;4.30;99.90
15630;DHT22;7914;50.842;0.166;2023-01-24T04:21:11;4.30;99.90
15630;DHT22;7914;50.842;0.166;2023-01-24T04:23:38;4.30;99.90
15630;DHT22;7914;50.842;0.166;2023-01-24T04:26:04;4.50;99.90
15630;DHT22;7914;50.842;0.166;2023-01-24T04:28:30;4.30;99.90
15630;DHT22;7914;50.842;0.166;2023-01-24T04:30:57;4.30;99.90
15630;DHT22;7914;50.842;0.166;2023-01-24T04:33:23;4.30;99.90
15630;DHT22;7914;50.842;0.166;2023-01-24T04:35:49;4.30;99.90
15630;DHT22;7914;50.842;0.166;2023-01-24T04:38:15;4.30;99.90
15630;DHT22;7914;50.842;0.166;2023-01-24T04:40:40;4.30;99.90
15630;DHT22;7914;50.842;0.166;2023-01-24T04:43:06;4.40;99.90
15630;DHT22;7914;50.842;0.166;2023-01-24T04:45:32;4.30;99.90
15630;DHT22;7914;50.842;0.166;2023-01-24T04:47:57;4.30;99.90
15630;DHT22;7914;50.842;0.166;2023-01-24T04:50:23;4.30;99.90
15630;DHT22;7914;50.842;0.166;2023-01-24T04:52:49;4.30;99.90
15630;DHT22;7914;50.842;0.166;2023-01-24T04:55:15;4.30;99.90
15630;DHT22;7914;50.842;0.166;2023-01-24T04:57:40;4.30;99.90
15630;DHT22;7914;50.842;0.166;2023-01-24T05:00:07;4.40;99.90
15630;DHT22;7914;50.842;0.166;2023-01-24T05:02:34;4.40;99.90
15630;DHT22;7914;50.842;0.166;2023-01-24T05:05:00;4.40;99.90
15630;DHT22;7914;50.842;0.166;2023-01-24T05:07:26;4.40;99.90
15630;DHT22;7914;50.842;0.166;2023-01-24T05:09:52;4.40;99.90
15630;DHT22;7914;50.842;0.166;2023-01-24T05:12:17;4.30;99.90
15630;DHT22;7914;50.842;0.166;2023-01-24T05:14:43;4.30;99.90
15630;DHT22;7914;50.842;0.166;2023-01-24T05:17:09;4.30;99.90
15630;DHT22;7914;50.842;0.166;2023-01-24T05:19:35;4.30;99.90
15630;DHT22;7914;50.842;0.166;2023-01-24T05:22:00;4.30;99.90
15630;DHT22;7914;50.842;0.166;2023-01-24T05:24:26;4.30;99.90
15630;DHT22;7914;50.842;0.166;2023-01-24T05:26:52;4.30;99.90
15630;DHT22;7914;50.842;0.166;2023-01-24T05:29:17;4.30;99.90
15630;DHT22;7914;50.842;0.166;2023-01-24T05:31:43;4.30;99.90
15630;DHT22;7914;50.842;0.166;2023-01-24T05:34:09;4.30;99.90
15630;DHT22;7914;50.842;0.166;2023-01-24T05:36:34;4.30;99.90
15630;DHT22;7914;50.842;0.166;2023-01-24T05:39:00;4.30;99.90
15630;DHT22;7914;50.842;0.166;2023-01-24T05:41:26;4.40;99.90
15630;DHT22;7914;50.842;0.166;2023-01-24T05:43:52;4.40;99.90
15630;DHT22;7914;50.842;0.166;2023-01-24T05:46:19;4.30;99.90
15630;DHT22;7914;50.842;0.166;2023-01-24T05:48:46;4.40;99.90
15630;DHT22;7914;50.842;0.166;2023-01-24T05:51:14;4.40;99.90
15630;DHT22;7914;50.842;0.166;2023-01-24T05:53:41;4.50;99.90
15630;DHT22;7914;50.842;0.166;2023-01-24T05:56:11;4.40;99.90
15630;DHT22;7914;50.842;0.166;2023-01-24T05:58:54;4.50;99.90
15630;DHT22;7914;50.842;0.166;2023-01-24T06:01:21;4.40;99.90
15630;DHT22;7914;50.842;0.166;2023-01-24T06:03:51;4.50;99.90
15630;DHT22;7914;50.842;0.166;2023-01-24T06:06:19;4.40;99.90
15630;DHT22;7914;50.842;0.166;2023-01-24T06:08:46;4.40;99.90
15630;DHT22;7914;50.842;0.166;2023-01-24T06:11:14;4.50;99.90
15630;DHT22;7914;50.842;0.166;2023-01-24T06:13:41;4.50;99.90
15630;DHT22;7914;50.842;0.166;2023-01-24T06:16:14;4.50;99.90
15630;DHT22;7914;50.842;0.166;2023-01-24T06:18:40;4.50;99.90
15630;DHT22;7914;50.842;0.166;2023-01-24T06:23:52;4.40;99.90
15630;DHT22;7914;50.842;0.166;2023-01-24T06:26:18;4.40;99.90
15630;DHT22;7914;50.842;0.166;2023-01-24T06:28:44;4.30;99.90
15630;DHT22;7914;50.842;0.166;2023-01-24T06:34:37;4.50;99.90
15630;DHT22;7914;50.842;0.166;2023-01-24T06:39:50;4.50;99.90
15630;DHT22;7914;50.842;0.166;2023-01-24T06:42:18;4.50;99.90
15630;DHT22;7914;50.842;0.166;2023-01-24T06:44:43;4.40;99.90
15630;DHT22;7914;50.842;0.166;2023-01-24T06:47:10;4.40;99.90
15630;DHT22;7914;50.842;0.166;2023-01-24T06:49:37;4.70;99.90
15630;DHT22;7914;50.842;0.166;2023-01-24T06:52:03;4.40;99.90
15630;DHT22;7914;50.842;0.166;2023-01-24T06:54:28;4.50;99.90
15630;DHT22;7914;50.842;0.166;2023-01-24T06:56:54;4.70;99.90
15630;DHT22;7914;50.842;0.166;2023-01-24T06:59:20;4.50;99.90
15630;DHT22;7914;50.842;0.166;2023-01-24T07:01:49;4.60;99.90
15630;DHT22;7914;50.842;0.166;2023-01-24T07:04:15;4.50;99.90
15630;DHT22;7914;50.842;0.166;2023-01-24T07:06:41;4.50;99.90
15630;DHT22;7914;50.842;0.166;2023-01-24T07:09:06;4.50;99.90
15630;DHT22;7914;50.842;0.166;2023-01-24T07:11:32;4.50;99.90
15630;DHT22;7914;50.842;0.166;2023-01-24T07:13:58;4.50;99.90
15630;DHT22;7914;50.842;0.166;2023-01-24T07:16:24;4.50;99.90
15630;DHT22;7914;50.842;0.166;2023-01-24T07:18:50;4.50;99.90
15630;DHT22;7914;50.842;0.166;2023-01-24T07:21:16;4.60;99.90
15630;DHT22;7914;50.842;0.166;2023-01-24T07:23:46;4.50;99.90
15630;DHT22;7914;50.842;0.166;2023-01-24T07:26:13;4.50;99.90
15630;DHT22;7914;50.842;0.166;2023-01-24T07:28:39;4.50;99.90
15630;DHT22;7914;50.842;0.166;2023-01-24T07:31:06;4.50;99.90
15630;DHT22;7914;50.842;0.166;2023-01-24T07:33:31;4.50;99.90
15630;DHT22;7914;50.842;0.166;2023-01-24T07:35:57;4.50;99.90
15630;DHT22;7914;50.842;0.166;2023-01-24T07:38:23;4.50;99.90
15630;DHT22;7914;50.842;0.166;2023-01-24T07:40:49;4.50;99.90
15630;DHT22;7914;50.842;0.166;2023-01-24T07:43:14;4.50;99.90
15630;DHT22;7914;50.842;0.166;2023-01-24T07:45:40;4.50;99.90
15630;DHT22;7914;50.842;0.166;2023-01-24T07:48:09;4.50;99.90
15630;DHT22;7914;50.842;0.166;2023-01-24T07:50:35;4.50;99.90
15630;DHT22;7914;50.842;0.166;2023-01-24T07:53:02;4.50;99.90
15630;DHT22;7914;50.842;0.166;2023-01-24T07:55:27;4.60;99.90
15630;DHT22;7914;50.842;0.166;2023-01-24T07:58:01;4.60;99.90
15630;DHT22;7914;50.842;0.166;2023-01-24T08:00:27;4.70;99.90
15630;DHT22;7914;50.842;0.166;2023-01-24T08:02:53;4.50;99.90
15630;DHT22;7914;50.842;0.166;2023-01-24T08:05:19;4.50;99.90
15630;DHT22;7914;50.842;0.166;2023-01-24T08:07:45;4.60;99.90
15630;DHT22;7914;50.842;0.166;2023-01-24T08:10:10;4.60;99.90
15630;DHT22;7914;50.842;0.166;2023-01-24T08:12:36;4.70;99.90
15630;DHT22;7914;50.842;0.166;2023-01-24T08:15:02;4.60;99.90
15630;DHT22;7914;50.842;0.166;2023-01-24T08:17:28;4.60;99.90
15630;DHT22;7914;50.842;0.166;2023-01-24T08:19:54;4.60;99.90
15630;DHT22;7914;50.842;0.166;2023-01-24T08:22:19;4.60;99.90
15630;DHT22;7914;50.842;0.166;2023-01-24T08:24:45;4.60;99.90
15630;DHT22;7914;50.842;0.166;2023-01-24T08:27:11;4.70;99.90
15630;DHT22;7914;50.842;0.166;2023-01-24T08:29:36;4.70;99.90
15630;DHT22;7914;50.842;0.166;2023-01-24T08:32:02;4.70;99.90
15630;DHT22;7914;50.842;0.166;2023-01-24T08:34:28;4.70;99.90
15630;DHT22;7914;50.842;0.166;2023-01-24T08:36:53;4.70;99.90
15630;DHT22;7914;50.842;0.166;2023-01-24T08:39:19;4.70;99.90
15630;DHT22;7914;50.842;0.166;2023-01-24T08:41:45;4.70;99.90
15630;DHT22;7914;50.842;0.166;2023-01-24T08:44:15;4.70;99.90
15630;DHT22;7914;50.842;0.166;2023-01-24T08:46:42;4.60;99.90
15630;DHT22;7914;50.842;0.166;2023-01-24T08:49:10;4.70;99.90
15630;DHT22;7914;50.842;0.166;2023-01-24T08:51:35;4.70;99.90
15630;DHT22;7914;50.842;0.166;2023-01-24T08:54:03;4.70;99.90
15630;DHT22;7914;50.842;0.166;2023-01-24T08:56:29;4.70;99.90
15630;DHT22;7914;50.842;0.166;2023-01-24T08:58:55;4.70;99.90
15630;DHT22;7914;50.842;0.166;2023-01-24T09:01:20;4.70;97.20
15630;DHT22;7914;50.842;0.166;2023-01-24T09:03:46;4.70;99.90
15630;DHT22;7914;50.842;0.166;2023-01-24T09:06:11;4.70;99.90
15630;DHT22;7914;50.842;0.166;2023-01-24T09:08:37;4.60;99.90
15630;DHT22;7914;50.842;0.166;2023-01-24T09:11:03;4.70;99.90
15630;DHT22;7914;50.842;0.166;2023-01-24T09:13:29;4.70;99.90
15630;DHT22;7914;50.842;0.166;2023-01-24T09:15:57;4.70;99.90
15630;DHT22;7914;50.842;0.166;2023-01-24T09:18:23;4.70;99.90
15630;DHT22;7914;50.842;0.166;2023-01-24T09:20:49;4.70;73.10
15630;DHT22;7914;50.842;0.166;2023-01-24T09:23:14;4.60;53.70
15630;DHT22;7914;50.842;0.166;2023-01-24T09:25:41;4.70;45.70
15630;DHT22;7914;50.842;0.166;2023-01-24T09:28:07;4.70;36.40
15630;DHT22;7914;50.842;0.166;2023-01-24T09:30:34;4.70;98.80
15630;DHT22;7914;50.842;0.166;2023-01-24T09:33:06;4.70;73.70
15630;DHT22;7914;50.842;0.166;2023-01-24T09:35:32;4.70;83.80
15630;DHT22;7914;50.842;0.166;2023-01-24T09:37:58;4.80;41.60
15630;DHT22;7914;50.842;0.166;2023-01-24T09:40:38;4.80;22.40
15630;DHT22;7914;50.842;0.166;2023-01-24T09:43:12;4.70;1.00
15630;DHT22;7914;50.842;0.166;2023-01-24T09:46:11;4.80;2.60
15630;DHT22;7914;50.842;0.166;2023-01-24T09:48:34;4.80;20.10
15630;DHT22;7914;50.842;0.166;2023-01-24T09:51:05;4.80;18.70
15630;DHT22;7914;50.842;0.166;2023-01-24T09:53:47;4.80;12.00
15630;DHT22;7914;50.842;0.166;2023-01-24T09:56:36;4.90;8.30
15630;DHT22;7914;50.842;0.166;2023-01-24T09:59:13;4.90;8.20
15630;DHT22;7914;50.842;0.166;2023-01-24T10:01:41;4.90;1.00
15630;DHT22;7914;50.842;0.166;2023-01-24T10:04:18;4.90;1.00
15630;DHT22;7914;50.842;0.166;2023-01-24T10:06:58;4.90;1.00
15630;DHT22;7914;50.842;0.166;2023-01-24T10:10:01;4.90;1.00
15630;DHT22;7914;50.842;0.166;2023-01-24T10:15:34;4.90;1.00
15630;DHT22;7914;50.842;0.166;2023-01-24T10:18:06;4.90;2.30
15630;DHT22;7914;50.842;0.166;2023-01-24T10:23:51;5.00;14.90
15630;DHT22;7914;50.842;0.166;2023-01-24T10:28:55;5.00;1.00
15630;DHT22;7914;50.842;0.166;2023-01-24T10:31:34;5.00;1.00
15630;DHT22;7914;50.842;0.166;2023-01-24T10:34:12;5.00;1.00
15630;DHT22;7914;50.842;0.166;2023-01-24T10:36:57;5.00;8.00
15630;DHT22;7914;50.842;0.166;2023-01-24T10:39:24;5.00;1.00
15630;DHT22;7914;50.842;0.166;2023-01-24T10:41:51;5.10;1.00
15630;DHT22;7914;50.842;0.166;2023-01-24T10:44:30;5.00;1.00
15630;DHT22;7914;50.842;0.166;2023-01-24T10:49:59;5.10;1.00
15630;DHT22;7914;50.842;0.166;2023-01-24T10:52:25;5.10;1.00
15630;DHT22;7914;50.842;0.166;2023-01-24T10:54:59;5.00;1.00
15630;DHT22;7914;50.842;0.166;2023-01-24T10:57:52;5.10;1.00
15630;DHT22;7914;50.842;0.166;2023-01-24T11:02:56;5.00;1.00
15630;DHT22;7914;50.842;0.166;2023-01-24T11:05:23;5.00;1.00
15630;DHT22;7914;50.842;0.166;2023-01-24T11:07:52;5.00;1.00
15630;DHT22;7914;50.842;0.166;2023-01-24T11:10:24;5.10;1.00
15630;DHT22;7914;50.842;0.166;2023-01-24T11:12:54;5.10;1.00
15630;DHT22;7914;50.842;0.166;2023-01-24T11:15:26;5.00;1.00
15630;DHT22;7914;50.842;0.166;2023-01-24T11:17:55;5.10;1.00
15630;DHT22;7914;50.842;0.166;2023-01-24T11:20:28;5.10;1.00
15630;DHT22;7914;50.842;0.166;2023-01-24T11:23:17;5.10;1.00
15630;DHT22;7914;50.842;0.166;2023-01-24T11:26:04;5.10;1.00
15630;DHT22;7914;50.842;0.166;2023-01-24T11:28:32;5.10;1.00
15630;DHT22;7914;50.842;0.166;2023-01-24T11:31:04;5.10;1.00
15630;DHT22;7914;50.842;0.166;2023-01-24T11:39:46;5.20;1.00
15630;DHT22;7914;50.842;0.166;2023-01-24T11:47:43;5.20;1.00
15630;DHT22;7914;50.842;0.166;2023-01-24T12:00:43;5.20;1.00
15630;DHT22;7914;50.842;0.166;2023-01-24T12:19:54;5.30;1.00
15630;DHT22;7914;50.842;0.166;2023-01-24T12:22:24;5.30;1.00
15630;DHT22;7914;50.842;0.166;2023-01-24T12:24:56;5.30;1.00
15630;DHT22;7914;50.842;0.166;2023-01-24T12:27:25;5.30;1.00
15630;DHT22;7914;50.842;0.166;2023-01-24T12:30:03;5.40;1.00
15630;DHT22;7914;50.842;0.166;2023-01-24T12:35:28;5.50;1.00
15630;DHT22;7914;50.842;0.166;2023-01-24T12:38:32;5.50;1.00
15630;DHT22;7914;50.842;0.166;2023-01-24T12:46:22;5.40;1.00
15630;DHT22;7914;50.842;0.166;2023-01-24T12:49:27;5.50;1.00
15630;DHT22;7914;50.842;0.166;2023-01-24T12:57:43;5.50;1.00
15630;DHT22;7914;50.842;0.166;2023-01-24T13:00:23;5.40;1.00
15630;DHT22;7914;50.842;0.166;2023-01-24T13:05:45;5.50;1.00
15630;DHT22;7914;50.842;0.166;2023-01-24T13:08:50;5.50;1.00
15630;DHT22;7914;50.842;0.166;2023-01-24T13:11:22;5.50;1.00
15630;DHT22;7914;50.842;0.166;2023-01-24T13:14:17;5.50;1.00
15630;DHT22;7914;50.842;0.166;2023-01-24T13:17:00;5.40;1.00
15630;DHT22;7914;50.842;0.166;2023-01-24T13:30:31;5.40;1.00
15630;DHT22;7914;50.842;0.166;2023-01-24T13:32:59;5.50;1.00
15630;DHT22;7914;50.842;0.166;2023-01-24T13:35:29;5.40;1.00
15630;DHT22;7914;50.842;0.166;2023-01-24T13:38:02;5.40;1.00
15630;DHT22;7914;50.842;0.166;2023-01-24T13:40:30;5.40;1.00
15630;DHT22;7914;50.842;0.166;2023-01-24T13:43:01;5.50;1.00
15630;DHT22;7914;50.842;0.166;2023-01-24T13:47:57;5.50;1.00
15630;DHT22;7914;50.842;0.166;2023-01-24T13:50:28;5.50;1.00
15630;DHT22;7914;50.842;0.166;2023-01-24T13:53:01;5.50;1.00
15630;DHT22;7914;50.842;0.166;2023-01-24T14:00:54;5.50;1.00
15630;DHT22;7914;50.842;0.166;2023-01-24T14:03:35;5.50;1.00
15630;DHT22;7914;50.842;0.166;2023-01-24T14:22:00;5.50;1.00
15630;DHT22;7914;50.842;0.166;2023-01-24T14:29:51;5.40;1.00
15630;DHT22;7914;50.842;0.166;2023-01-24T14:32:26;5.40;1.00
15630;DHT22;7914;50.842;0.166;2023-01-24T14:35:28;5.40;1.00
15630;DHT22;7914;50.842;0.166;2023-01-24T14:38:11;5.40;1.00
15630;DHT22;7914;50.842;0.166;2023-01-24T14:40:39;5.40;1.00
15630;DHT22;7914;50.842;0.166;2023-01-24T14:43:06;5.40;1.00
15630;DHT22;7914;50.842;0.166;2023-01-24T14:45:35;5.40;1.00
15630;DHT22;7914;50.842;0.166;2023-01-24T14:48:06;5.40;1.00
15630;DHT22;7914;50.842;0.166;2023-01-24T14:50:34;5.40;1.00
15630;DHT22;7914;50.842;0.166;2023-01-24T14:53:00;5.40;1.00
15630;DHT22;7914;50.842;0.166;2023-01-24T14:57:53;5.30;1.00
15630;DHT22;7914;50.842;0.166;2023-01-24T15:00:20;5.40;1.00
15630;DHT22;7914;50.842;0.166;2023-01-24T15:03:20;5.30;1.00
15630;DHT22;7914;50.842;0.166;2023-01-24T15:06:01;5.30;1.00
15630;DHT22;7914;50.842;0.166;2023-01-24T15:08:28;5.30;1.00
15630;DHT22;7914;50.842;0.166;2023-01-24T15:11:33;5.30;1.00
15630;DHT22;7914;50.842;0.166;2023-01-24T15:13:59;5.40;1.00
15630;DHT22;7914;50.842;0.166;2023-01-24T15:16:36;5.30;1.00
15630;DHT22;7914;50.842;0.166;2023-01-24T15:19:13;5.30;1.00
15630;DHT22;7914;50.842;0.166;2023-01-24T15:21:46;5.30;1.00
15630;DHT22;7914;50.842;0.166;2023-01-24T15:26:44;5.30;1.00
15630;DHT22;7914;50.842;0.166;2023-01-24T15:29:44;5.40;1.00
15630;DHT22;7914;50.842;0.166;2023-01-24T15:32:29;5.40;1.00
15630;DHT22;7914;50.842;0.166;2023-01-24T15:35:18;5.40;1.00
15630;DHT22;7914;50.842;0.166;2023-01-24T15:37:44;5.30;1.00
15630;DHT22;7914;50.842;0.166;2023-01-24T15:40:18;5.40;1.00
15630;DHT22;7914;50.842;0.166;2023-01-24T15:42:46;5.30;1.00
15630;DHT22;7914;50.842;0.166;2023-01-24T15:45:36;5.20;1.00
15630;DHT22;7914;50.842;0.166;2023-01-24T15:48:19;5.20;1.00
15630;DHT22;7914;50.842;0.166;2023-01-24T15:50:56;5.30;1.00
15630;DHT22;7914;50.842;0.166;2023-01-24T15:53:42;5.20;1.00
15630;DHT22;7914;50.842;0.166;2023-01-24T15:56:21;5.20;1.00
15630;DHT22;7914;50.842;0.166;2023-01-24T15:58:48;5.30;1.00
15630;DHT22;7914;50.842;0.166;2023-01-24T16:01:14;5.30;1.00
15630;DHT22;7914;50.842;0.166;2023-01-24T16:03:40;5.20;1.00
15630;DHT22;7914;50.842;0.166;2023-01-24T16:06:05;5.10;1.00
15630;DHT22;7914;50.842;0.166;2023-01-24T16:08:31;5.10;1.00
15630;DHT22;7914;50.842;0.166;2023-01-24T16:10:57;5.10;1.00
15630;DHT22;7914;50.842;0.166;2023-01-24T16:15:54;5.10;1.00
15630;DHT22;7914;50.842;0.166;2023-01-24T16:18:19;5.10;1.00
15630;DHT22;7914;50.842;0.166;2023-01-24T16:20:45;5.10;1.00
15630;DHT22;7914;50.842;0.166;2023-01-24T16:23:11;5.10;1.00
15630;DHT22;7914;50.842;0.166;2023-01-24T16:25:37;5.10;1.00
15630;DHT22;7914;50.842;0.166;2023-01-24T16:28:03;5.00;1.00
15630;DHT22;7914;50.842;0.166;2023-01-24T16:30:29;5.10;1.00
15630;DHT22;7914;50.842;0.166;2023-01-24T16:32:55;5.00;1.00
15630;DHT22;7914;50.842;0.166;2023-01-24T16:35:22;5.10;1.00
15630;DHT22;7914;50.842;0.166;2023-01-24T16:37:48;5.00;1.00
15630;DHT22;7914;50.842;0.166;2023-01-24T16:40:16;5.00;1.00
15630;DHT22;7914;50.842;0.166;2023-01-24T16:42:44;5.00;1.00
15630;DHT22;7914;50.842;0.166;2023-01-24T16:45:16;4.90;1.00
15630;DHT22;7914;50.842;0.166;2023-01-24T16:47:42;5.00;1.00
15630;DHT22;7914;50.842;0.166;2023-01-24T16:50:09;5.00;1.00
15630;DHT22;7914;50.842;0.166;2023-01-24T16:52:36;5.00;1.00
15630;DHT22;7914;50.842;0.166;2023-01-24T16:55:01;5.00;1.00
15630;DHT22;7914;50.842;0.166;2023-01-24T16:57:28;5.00;1.00
15630;DHT22;7914;50.842;0.166;2023-01-24T16:59:55;4.90;1.00
15630;DHT22;7914;50.842;0.166;2023-01-24T17:02:21;4.90;38.50
15630;DHT22;7914;50.842;0.166;2023-01-24T17:04:47;5.00;19.00
15630;DHT22;7914;50.842;0.166;2023-01-24T17:07:13;5.00;27.30
15630;DHT22;7914;50.842;0.166;2023-01-24T17:09:39;4.90;15.80
15630;DHT22;7914;50.842;0.166;2023-01-24T17:12:05;4.90;1.00
15630;DHT22;7914;50.842;0.166;2023-01-24T17:14:34;4.90;1.00
15630;DHT22;7914;50.842;0.166;2023-01-24T17:17:00;4.90;1.00
15630;DHT22;7914;50.842;0.166;2023-01-24T17:19:25;4.90;1.00
15630;DHT22;7914;50.842;0.166;2023-01-24T17:21:51;4.80;1.00
15630;DHT22;7914;50.842;0.166;2023-01-24T17:24:17;4.90;1.00
15630;DHT22;7914;50.842;0.166;2023-01-24T17:26:42;4.90;14.00
15630;DHT22;7914;50.842;0.166;2023-01-24T17:29:08;4.80;20.20
15630;DHT22;7914;50.842;0.166;2023-01-24T17:31:34;4.80;42.70
15630;DHT22;7914;50.842;0.166;2023-01-24T17:34:00;4.70;36.80
15630;DHT22;7914;50.842;0.166;2023-01-24T17:36:26;4.70;29.70
15630;DHT22;7914;50.842;0.166;2023-01-24T17:38:52;4.70;25.30
15630;DHT22;7914;50.842;0.166;2023-01-24T17:41:20;4.70;60.90
15630;DHT22;7914;50.842;0.166;2023-01-24T17:43:48;4.70;48.70
15630;DHT22;7914;50.842;0.166;2023-01-24T17:46:14;4.70;57.60
15630;DHT22;7914;50.842;0.166;2023-01-24T17:48:40;4.70;61.00
15630;DHT22;7914;50.842;0.166;2023-01-24T17:51:07;4.70;76.30
15630;DHT22;7914;50.842;0.166;2023-01-24T17:53:33;4.70;72.00
15630;DHT22;7914;50.842;0.166;2023-01-24T17:55:59;4.70;54.40
15630;DHT22;7914;50.842;0.166;2023-01-24T17:58:24;4.70;49.00
15630;DHT22;7914;50.842;0.166;2023-01-24T18:00:54;4.70;12.60
15630;DHT22;7914;50.842;0.166;2023-01-24T18:03:19;4.60;1.00
15630;DHT22;7914;50.842;0.166;2023-01-24T18:05:48;4.60;1.00
15630;DHT22;7914;50.842;0.166;2023-01-24T18:08:14;4.60;1.00
15630;DHT22;7914;50.842;0.166;2023-01-24T18:10:40;4.60;13.10
15630;DHT22;7914;50.842;0.166;2023-01-24T18:13:06;4.70;2.20
15630;DHT22;7914;50.842;0.166;2023-01-24T18:15:33;4.70;23.90
15630;DHT22;7914;50.842;0.166;2023-01-24T18:17:59;4.70;15.00
15630;DHT22;7914;50.842;0.166;2023-01-24T18:20:25;4.70;1.00
15630;DHT22;7914;50.842;0.166;2023-01-24T18:22:50;4.60;1.00
15630;DHT22;7914;50.842;0.166;2023-01-24T18:25:18;4.70;1.00
15630;DHT22;7914;50.842;0.166;2023-01-24T18:27:44;4.70;1.00
15630;DHT22;7914;50.842;0.166;2023-01-24T18:30:11;4.70;1.00
15630;DHT22;7914;50.842;0.166;2023-01-24T18:32:36;4.60;1.00
15630;DHT22;7914;50.842;0.166;2023-01-24T18:35:03;4.60;1.00
15630;DHT22;7914;50.842;0.166;2023-01-24T18:37:28;4.60;1.00
15630;DHT22;7914;50.842;0.166;2023-01-24T18:39:54;4.60;1.00
15630;DHT22;7914;50.842;0.166;2023-01-24T18:42:20;4.60;1.00